sensor_id;sensor_type;location;lat;lon;timestamp;pressure;altitude;pressure_sealevel;temperature;humidity
19761;BME280;10039;42.632;23.408;2022-12-18T00:00:47;95725.16;;;8.64;82.07
19761;BME280;10039;42.632;23.408;2022-12-18T00:03:15;95706.50;;;8.32;82.37
19761;BME280;10039;42.632;23.408;2022-12-18T00:05:50;95750.22;;;8.35;82.45
19761;BME280;10039;42.632;23.408;2022-12-18T00:08:18;95738.75;;;8.17;81.97
19761;BME280;10039;42.632;23.408;2022-12-18T00:10:44;95702.53;;;7.81;82.46
19761;BME280;10039;42.632;23.408;2022-12-18T00:13:11;95740.22;;;8.04;83.76
19761;BME280;10039;42.632;23.408;2022-12-18T00:15:38;95750.50;;;8.16;82.78
19761;BME280;10039;42.632;23.408;2022-12-18T00:18:04;95749.38;;;8.17;82.95
19761;BME280;10039;42.632;23.408;2022-12-18T00:20:31;95753.13;;;8.05;83.11
19761;BME280;10039;42.632;23.408;2022-12-18T00:22:56;95757.22;;;7.89;82.14
19761;BME280;10039;42.632;23.408;2022-12-18T00:25:22;95724.09;;;7.62;82.46
19761;BME280;10039;42.632;23.408;2022-12-18T00:27:48;95737.44;;;7.69;82.51
19761;BME280;10039;42.632;23.408;2022-12-18T00:30:14;95725.16;;;7.44;82.84
19761;BME280;10039;42.632;23.408;2022-12-18T00:32:40;95734.19;;;7.32;83.42
19761;BME280;10039;42.632;23.408;2022-12-18T00:35:06;95768.81;;;7.50;83.73
19761;BME280;10039;42.632;23.408;2022-12-18T00:37:33;95755.47;;;7.39;84.11
19761;BME280;10039;42.632;23.408;2022-12-18T00:39:59;95771.06;;;7.44;83.73
19761;BME280;10039;42.632;23.408;2022-12-18T00:42:24;95742.06;;;7.18;84.29
19761;BME280;10039;42.632;23.408;2022-12-18T00:45:09;95770.19;;;7.26;84.17
19761;BME280;10039;42.632;23.408;2022-12-18T00:47:35;95779.38;;;7.39;84.94
19761;BME280;10039;42.632;23.408;2022-12-18T00:50:01;95764.19;;;7.36;84.38
19761;BME280;10039;42.632;23.408;2022-12-18T00:52:26;95766.47;;;7.38;84.36
19761;BME280;10039;42.632;23.408;2022-12-18T00:54:52;95762.94;;;7.20;84.19
19761;BME280;10039;42.632;23.408;2022-12-18T00:57:18;95759.94;;;7.28;83.98
19761;BME280;10039;42.632;23.408;2022-12-18T00:59:43;95783.28;;;7.59;84.18
19761;BME280;10039;42.632;23.408;2022-12-18T01:02:09;95770.31;;;7.47;83.54
19761;BME280;10039;42.632;23.408;2022-12-18T01:04:35;95776.78;;;7.53;82.97
19761;BME280;10039;42.632;23.408;2022-12-18T01:07:00;95759.66;;;7.40;82.81
19761;BME280;10039;42.632;23.408;2022-12-18T01:09:26;95795.06;;;7.62;83.26
19761;BME280;10039;42.632;23.408;2022-12-18T01:11:52;95789.28;;;7.49;82.66
19761;BME280;10039;42.632;23.408;2022-12-18T01:14:18;95803.78;;;7.59;82.98
19761;BME280;10039;42.632;23.408;2022-12-18T01:16:44;95812.59;;;7.76;82.90
19761;BME280;10039;42.632;23.408;2022-12-18T01:19:12;95783.38;;;7.76;82.25
19761;BME280;10039;42.632;23.408;2022-12-18T01:21:37;95785.63;;;7.71;81.75
19761;BME280;10039;42.632;23.408;2022-12-18T01:24:03;95822.25;;;8.09;81.92
19761;BME280;10039;42.632;23.408;2022-12-18T01:26:29;95794.47;;;7.96;81.21
19761;BME280;10039;42.632;23.408;2022-12-18T01:28:55;95807.66;;;7.75;81.58
19761;BME280;10039;42.632;23.408;2022-12-18T01:31:27;95809.09;;;7.62;81.05
19761;BME280;10039;42.632;23.408;2022-12-18T01:33:54;95798.44;;;7.55;81.42
19761;BME280;10039;42.632;23.408;2022-12-18T01:36:23;95792.25;;;7.37;81.32
19761;BME280;10039;42.632;23.408;2022-12-18T01:38:49;95804.84;;;7.51;81.63
19761;BME280;10039;42.632;23.408;2022-12-18T01:41:17;95810.47;;;7.39;80.55
19761;BME280;10039;42.632;23.408;2022-12-18T01:46:19;95834.41;;;7.49;80.22
19761;BME280;10039;42.632;23.408;2022-12-18T01:48:47;95811.13;;;7.25;80.12
19761;BME280;10039;42.632;23.408;2022-12-18T01:51:14;95821.25;;;7.09;79.83
19761;BME280;10039;42.632;23.408;2022-12-18T01:53:42;95807.09;;;6.95;81.38
19761;BME280;10039;42.632;23.408;2022-12-18T01:56:12;95820.72;;;6.93;80.74
19761;BME280;10039;42.632;23.408;2022-12-18T02:01:22;95830.88;;;7.28;81.14
19761;BME280;10039;42.632;23.408;2022-12-18T02:03:48;95820.00;;;6.96;80.51
19761;BME280;10039;42.632;23.408;2022-12-18T02:06:17;95806.47;;;6.68;81.09
19761;BME280;10039;42.632;23.408;2022-12-18T02:09:07;95858.75;;;7.08;81.45
19761;BME280;10039;42.632;23.408;2022-12-18T02:11:59;95855.75;;;7.13;81.53
19761;BME280;10039;42.632;23.408;2022-12-18T02:14:32;95861.72;;;7.03;81.18
19761;BME280;10039;42.632;23.408;2022-12-18T02:17:14;95831.78;;;6.99;81.54
19761;BME280;10039;42.632;23.408;2022-12-18T02:28:08;95841.25;;;7.00;80.69
19761;BME280;10039;42.632;23.408;2022-12-18T02:30:37;95862.34;;;7.26;81.18
19761;BME280;10039;42.632;23.408;2022-12-18T02:33:06;95845.94;;;7.17;81.42
19761;BME280;10039;42.632;23.408;2022-12-18T02:35:33;95865.06;;;7.33;80.37
19761;BME280;10039;42.632;23.408;2022-12-18T02:38:01;95861.25;;;7.34;81.03
19761;BME280;10039;42.632;23.408;2022-12-18T02:40:28;95853.25;;;7.30;79.81
19761;BME280;10039;42.632;23.408;2022-12-18T02:42:55;95863.59;;;7.42;79.36
19761;BME280;10039;42.632;23.408;2022-12-18T02:45:21;95865.06;;;7.36;78.89
19761;BME280;10039;42.632;23.408;2022-12-18T02:47:48;95876.44;;;7.37;79.08
19761;BME280;10039;42.632;23.408;2022-12-18T02:50:35;95853.59;;;7.25;79.38
19761;BME280;10039;42.632;23.408;2022-12-18T03:03:56;95894.75;;;7.49;78.49
19761;BME280;10039;42.632;23.408;2022-12-18T03:06:28;95887.19;;;7.51;79.59
19761;BME280;10039;42.632;23.408;2022-12-18T03:09:01;95884.13;;;7.45;79.57
19761;BME280;10039;42.632;23.408;2022-12-18T03:11:31;95897.81;;;7.51;78.92
19761;BME280;10039;42.632;23.408;2022-12-18T03:14:20;95905.88;;;7.21;78.63
19761;BME280;10039;42.632;23.408;2022-12-18T03:16:52;95892.44;;;7.04;79.18
19761;BME280;10039;42.632;23.408;2022-12-18T03:19:22;95897.91;;;7.21;79.77
19761;BME280;10039;42.632;23.408;2022-12-18T03:21:53;95888.00;;;7.15;79.28
19761;BME280;10039;42.632;23.408;2022-12-18T03:24:20;95883.09;;;7.17;78.92
19761;BME280;10039;42.632;23.408;2022-12-18T03:26:48;95916.97;;;7.30;79.29
19761;BME280;10039;42.632;23.408;2022-12-18T03:31:54;95908.50;;;6.78;79.58
19761;BME280;10039;42.632;23.408;2022-12-18T03:34:29;95913.19;;;6.91;80.37
19761;BME280;10039;42.632;23.408;2022-12-18T03:36:56;95927.25;;;6.95;79.31
19761;BME280;10039;42.632;23.408;2022-12-18T03:39:23;95932.22;;;7.00;79.39
19761;BME280;10039;42.632;23.408;2022-12-18T03:41:55;95932.19;;;6.97;78.86
19761;BME280;10039;42.632;23.408;2022-12-18T03:44:41;95942.69;;;6.86;79.23
19761;BME280;10039;42.632;23.408;2022-12-18T03:47:16;95941.72;;;7.01;79.15
19761;BME280;10039;42.632;23.408;2022-12-18T03:49:59;95934.34;;;6.84;79.18
19761;BME280;10039;42.632;23.408;2022-12-18T03:52:44;95945.16;;;6.69;79.18
19761;BME280;10039;42.632;23.408;2022-12-18T03:55:13;95936.66;;;6.57;79.12
19761;BME280;10039;42.632;23.408;2022-12-18T03:57:39;95956.69;;;6.51;79.07
19761;BME280;10039;42.632;23.408;2022-12-18T04:00:13;95934.72;;;6.21;79.35
19761;BME280;10039;42.632;23.408;2022-12-18T04:02:42;95928.22;;;6.18;80.06
19761;BME280;10039;42.632;23.408;2022-12-18T04:05:10;95905.34;;;6.07;80.36
19761;BME280;10039;42.632;23.408;2022-12-18T04:07:37;95920.00;;;6.27;80.99
19761;BME280;10039;42.632;23.408;2022-12-18T04:10:06;95963.66;;;6.65;80.49
19761;BME280;10039;42.632;23.408;2022-12-18T04:12:33;95938.44;;;6.46;80.14
19761;BME280;10039;42.632;23.408;2022-12-18T04:14:58;95954.13;;;6.32;78.97
19761;BME280;10039;42.632;23.408;2022-12-18T04:17:24;95958.91;;;6.49;79.28
19761;BME280;10039;42.632;23.408;2022-12-18T04:19:50;95974.91;;;6.26;79.23
19761;BME280;10039;42.632;23.408;2022-12-18T04:22:15;95950.03;;;6.08;79.54
19761;BME280;10039;42.632;23.408;2022-12-18T04:24:41;95971.81;;;6.21;80.54
19761;BME280;10039;42.632;23.408;2022-12-18T04:27:06;95980.72;;;6.35;80.83
19761;BME280;10039;42.632;23.408;2022-12-18T04:29:32;95979.13;;;6.31;79.80
19761;BME280;10039;42.632;23.408;2022-12-18T04:31:58;95949.97;;;6.05;79.23
19761;BME280;10039;42.632;23.408;2022-12-18T04:34:23;95995.53;;;6.14;78.85
19761;BME280;10039;42.632;23.408;2022-12-18T04:36:49;95970.16;;;5.87;78.69
19761;BME280;10039;42.632;23.408;2022-12-18T04:39:17;95977.84;;;5.95;79.17
19761;BME280;10039;42.632;23.408;2022-12-18T04:41:43;95971.38;;;5.93;78.79
19761;BME280;10039;42.632;23.408;2022-12-18T04:44:08;96001.13;;;5.83;78.40
19761;BME280;10039;42.632;23.408;2022-12-18T04:46:34;95973.91;;;5.63;78.07
19761;BME280;10039;42.632;23.408;2022-12-18T04:48:59;95999.44;;;5.75;79.14
19761;BME280;10039;42.632;23.408;2022-12-18T04:51:25;95999.31;;;5.68;79.26
19761;BME280;10039;42.632;23.408;2022-12-18T04:53:50;95990.34;;;5.50;79.29
19761;BME280;10039;42.632;23.408;2022-12-18T04:56:16;95993.28;;;5.45;78.14
19761;BME280;10039;42.632;23.408;2022-12-18T04:58:43;95995.03;;;5.38;78.25
19761;BME280;10039;42.632;23.408;2022-12-18T05:01:10;96019.59;;;5.57;78.71
19761;BME280;10039;42.632;23.408;2022-12-18T05:03:37;96016.69;;;5.65;79.02
19761;BME280;10039;42.632;23.408;2022-12-18T05:06:04;96026.38;;;5.58;77.92
19761;BME280;10039;42.632;23.408;2022-12-18T05:08:30;96022.63;;;5.37;77.94
19761;BME280;10039;42.632;23.408;2022-12-18T05:11:00;96020.91;;;5.25;77.97
19761;BME280;10039;42.632;23.408;2022-12-18T05:13:27;96042.09;;;5.47;78.61
19761;BME280;10039;42.632;23.408;2022-12-18T05:15:53;95994.47;;;5.06;78.18
19761;BME280;10039;42.632;23.408;2022-12-18T05:18:19;96030.56;;;5.37;77.57
19761;BME280;10039;42.632;23.408;2022-12-18T05:20:44;96030.28;;;5.42;77.08
19761;BME280;10039;42.632;23.408;2022-12-18T05:23:10;96023.75;;;5.17;77.49
19761;BME280;10039;42.632;23.408;2022-12-18T05:25:35;96016.91;;;5.16;78.06
19761;BME280;10039;42.632;23.408;2022-12-18T05:28:01;96057.06;;;5.40;77.99
19761;BME280;10039;42.632;23.408;2022-12-18T05:30:26;96039.00;;;5.23;77.33
19761;BME280;10039;42.632;23.408;2022-12-18T05:32:53;96035.38;;;5.12;77.16
19761;BME280;10039;42.632;23.408;2022-12-18T05:35:18;96079.78;;;5.41;77.89
19761;BME280;10039;42.632;23.408;2022-12-18T05:37:44;96060.50;;;5.22;77.68
19761;BME280;10039;42.632;23.408;2022-12-18T05:40:10;96070.34;;;5.21;77.23
19761;BME280;10039;42.632;23.408;2022-12-18T05:42:36;96072.19;;;5.21;77.53
19761;BME280;10039;42.632;23.408;2022-12-18T05:45:02;96065.25;;;5.32;77.44
19761;BME280;10039;42.632;23.408;2022-12-18T05:47:28;96061.47;;;5.33;76.80
19761;BME280;10039;42.632;23.408;2022-12-18T05:49:54;96057.34;;;5.35;77.17
19761;BME280;10039;42.632;23.408;2022-12-18T05:52:19;96054.66;;;5.32;77.78
19761;BME280;10039;42.632;23.408;2022-12-18T05:54:45;96078.75;;;5.68;78.34
19761;BME280;10039;42.632;23.408;2022-12-18T05:57:10;96101.81;;;5.86;76.77
19761;BME280;10039;42.632;23.408;2022-12-18T05:59:36;96115.84;;;5.87;75.97
19761;BME280;10039;42.632;23.408;2022-12-18T06:02:01;96090.81;;;5.65;75.72
19761;BME280;10039;42.632;23.408;2022-12-18T06:04:27;96120.00;;;5.88;74.53
19761;BME280;10039;42.632;23.408;2022-12-18T06:06:53;96089.75;;;5.70;74.74
19761;BME280;10039;42.632;23.408;2022-12-18T06:09:19;96083.41;;;5.74;75.96
19761;BME280;10039;42.632;23.408;2022-12-18T06:11:45;96098.19;;;5.75;75.16
19761;BME280;10039;42.632;23.408;2022-12-18T06:14:10;96116.31;;;5.92;74.90
19761;BME280;10039;42.632;23.408;2022-12-18T06:16:36;96107.66;;;5.76;74.81
19761;BME280;10039;42.632;23.408;2022-12-18T06:19:04;96090.41;;;5.63;74.58
19761;BME280;10039;42.632;23.408;2022-12-18T06:21:31;96128.59;;;5.81;74.12
19761;BME280;10039;42.632;23.408;2022-12-18T06:23:58;96102.03;;;5.59;74.61
19761;BME280;10039;42.632;23.408;2022-12-18T06:26:24;96128.50;;;5.59;74.78
19761;BME280;10039;42.632;23.408;2022-12-18T06:28:50;96148.84;;;5.74;74.57
19761;BME280;10039;42.632;23.408;2022-12-18T06:31:15;96142.06;;;5.54;74.71
19761;BME280;10039;42.632;23.408;2022-12-18T06:33:41;96158.19;;;5.68;75.26
19761;BME280;10039;42.632;23.408;2022-12-18T06:36:08;96147.91;;;5.82;75.94
19761;BME280;10039;42.632;23.408;2022-12-18T06:38:35;96154.84;;;5.71;75.65
19761;BME280;10039;42.632;23.408;2022-12-18T06:41:16;96137.69;;;5.65;75.27
19761;BME280;10039;42.632;23.408;2022-12-18T06:43:42;96157.28;;;5.60;74.90
19761;BME280;10039;42.632;23.408;2022-12-18T06:46:08;96148.47;;;5.53;76.52
19761;BME280;10039;42.632;23.408;2022-12-18T06:48:34;96147.53;;;5.64;75.40
19761;BME280;10039;42.632;23.408;2022-12-18T06:51:00;96129.00;;;5.46;75.09
19761;BME280;10039;42.632;23.408;2022-12-18T06:53:26;96167.09;;;5.60;75.05
19761;BME280;10039;42.632;23.408;2022-12-18T06:55:52;96161.53;;;5.65;75.63
19761;BME280;10039;42.632;23.408;2022-12-18T06:58:18;96155.34;;;5.57;74.71
19761;BME280;10039;42.632;23.408;2022-12-18T07:00:43;96166.50;;;5.66;74.49
19761;BME280;10039;42.632;23.408;2022-12-18T07:03:09;96147.13;;;5.44;73.80
19761;BME280;10039;42.632;23.408;2022-12-18T07:05:39;96143.72;;;5.43;74.48
19761;BME280;10039;42.632;23.408;2022-12-18T07:08:05;96148.03;;;5.32;74.75
19761;BME280;10039;42.632;23.408;2022-12-18T07:10:31;96184.25;;;5.47;74.44
19761;BME280;10039;42.632;23.408;2022-12-18T07:12:57;96157.50;;;5.33;74.00
19761;BME280;10039;42.632;23.408;2022-12-18T07:15:22;96136.31;;;5.33;74.20
19761;BME280;10039;42.632;23.408;2022-12-18T07:17:47;96152.78;;;5.42;75.01
19761;BME280;10039;42.632;23.408;2022-12-18T07:20:13;96153.03;;;5.37;74.51
19761;BME280;10039;42.632;23.408;2022-12-18T07:22:38;96154.94;;;5.37;74.08
19761;BME280;10039;42.632;23.408;2022-12-18T07:25:04;96169.91;;;5.48;74.56
19761;BME280;10039;42.632;23.408;2022-12-18T07:27:33;96159.94;;;5.60;74.83
19761;BME280;10039;42.632;23.408;2022-12-18T07:29:59;96187.22;;;5.80;73.44
19761;BME280;10039;42.632;23.408;2022-12-18T07:32:24;96167.03;;;5.75;74.16
19761;BME280;10039;42.632;23.408;2022-12-18T07:34:49;96186.94;;;5.85;73.20
19761;BME280;10039;42.632;23.408;2022-12-18T07:37:15;96171.69;;;5.63;72.18
19761;BME280;10039;42.632;23.408;2022-12-18T07:39:40;96208.59;;;5.71;72.72
19761;BME280;10039;42.632;23.408;2022-12-18T07:42:06;96204.03;;;5.72;73.39
19761;BME280;10039;42.632;23.408;2022-12-18T07:44:50;96195.13;;;5.61;73.06
19761;BME280;10039;42.632;23.408;2022-12-18T07:47:15;96222.75;;;5.79;73.82
19761;BME280;10039;42.632;23.408;2022-12-18T07:49:41;96206.47;;;5.61;73.24
19761;BME280;10039;42.632;23.408;2022-12-18T07:52:06;96204.38;;;5.51;72.53
19761;BME280;10039;42.632;23.408;2022-12-18T07:54:32;96223.31;;;5.35;73.21
19761;BME280;10039;42.632;23.408;2022-12-18T07:56:57;96208.28;;;5.39;73.24
19761;BME280;10039;42.632;23.408;2022-12-18T07:59:23;96198.75;;;5.53;73.15
19761;BME280;10039;42.632;23.408;2022-12-18T08:01:48;96212.25;;;5.67;73.77
19761;BME280;10039;42.632;23.408;2022-12-18T08:04:13;96223.59;;;5.83;74.28
19761;BME280;10039;42.632;23.408;2022-12-18T08:06:39;96192.91;;;5.82;73.44
19761;BME280;10039;42.632;23.408;2022-12-18T08:09:05;96230.69;;;5.98;72.68
19761;BME280;10039;42.632;23.408;2022-12-18T08:11:30;96240.78;;;6.11;72.30
19761;BME280;10039;42.632;23.408;2022-12-18T08:13:57;96227.34;;;5.82;71.33
19761;BME280;10039;42.632;23.408;2022-12-18T08:16:25;96243.91;;;5.98;72.54
19761;BME280;10039;42.632;23.408;2022-12-18T08:18:52;96231.56;;;5.67;72.61
19761;BME280;10039;42.632;23.408;2022-12-18T08:21:20;96240.13;;;5.61;71.79
19761;BME280;10039;42.632;23.408;2022-12-18T08:23:48;96235.66;;;5.46;72.30
19761;BME280;10039;42.632;23.408;2022-12-18T08:26:14;96234.88;;;5.46;72.68
19761;BME280;10039;42.632;23.408;2022-12-18T08:28:42;96233.81;;;5.31;73.00
19761;BME280;10039;42.632;23.408;2022-12-18T08:31:08;96265.94;;;5.48;72.82
19761;BME280;10039;42.632;23.408;2022-12-18T08:33:36;96261.28;;;5.42;73.09
19761;BME280;10039;42.632;23.408;2022-12-18T08:36:04;96254.44;;;5.22;71.96
19761;BME280;10039;42.632;23.408;2022-12-18T08:38:29;96268.63;;;5.33;72.63
19761;BME280;10039;42.632;23.408;2022-12-18T08:41:03;96266.25;;;5.28;73.44
19761;BME280;10039;42.632;23.408;2022-12-18T08:43:28;96263.50;;;5.40;73.61
19761;BME280;10039;42.632;23.408;2022-12-18T08:46:16;96260.81;;;5.21;72.55
19761;BME280;10039;42.632;23.408;2022-12-18T08:48:42;96226.69;;;5.16;73.69
19761;BME280;10039;42.632;23.408;2022-12-18T08:51:07;96268.19;;;5.47;72.50
19761;BME280;10039;42.632;23.408;2022-12-18T08:53:35;96258.47;;;5.35;72.68
19761;BME280;10039;42.632;23.408;2022-12-18T08:56:00;96254.03;;;5.39;72.63
19761;BME280;10039;42.632;23.408;2022-12-18T08:58:26;96265.34;;;5.21;71.89
19761;BME280;10039;42.632;23.408;2022-12-18T09:00:51;96233.56;;;4.86;72.37
19761;BME280;10039;42.632;23.408;2022-12-18T09:03:18;96264.19;;;5.03;72.94
19761;BME280;10039;42.632;23.408;2022-12-18T09:05:45;96258.03;;;4.99;72.26
19761;BME280;10039;42.632;23.408;2022-12-18T09:08:11;96239.00;;;5.09;73.17
19761;BME280;10039;42.632;23.408;2022-12-18T09:10:47;96231.66;;;5.02;71.58
19761;BME280;10039;42.632;23.408;2022-12-18T09:13:14;96236.09;;;4.98;72.05
19761;BME280;10039;42.632;23.408;2022-12-18T09:15:45;96249.03;;;5.19;72.46
19761;BME280;10039;42.632;23.408;2022-12-18T09:18:13;96269.78;;;5.17;71.87
19761;BME280;10039;42.632;23.408;2022-12-18T09:20:38;96247.59;;;5.21;71.55
19761;BME280;10039;42.632;23.408;2022-12-18T09:23:05;96252.38;;;5.50;71.90
19761;BME280;10039;42.632;23.408;2022-12-18T09:25:31;96263.53;;;5.59;71.93
19761;BME280;10039;42.632;23.408;2022-12-18T09:28:18;96269.47;;;5.71;71.22
19761;BME280;10039;42.632;23.408;2022-12-18T09:30:47;96244.28;;;5.43;70.93
19761;BME280;10039;42.632;23.408;2022-12-18T09:33:14;96261.13;;;5.35;71.05
19761;BME280;10039;42.632;23.408;2022-12-18T09:35:40;96246.56;;;5.26;70.77
19761;BME280;10039;42.632;23.408;2022-12-18T09:38:07;96275.47;;;5.34;70.68
19761;BME280;10039;42.632;23.408;2022-12-18T09:40:36;96267.25;;;5.39;70.98
19761;BME280;10039;42.632;23.408;2022-12-18T09:43:05;96247.31;;;5.26;71.18
19761;BME280;10039;42.632;23.408;2022-12-18T09:45:41;96264.41;;;5.47;71.05
19761;BME280;10039;42.632;23.408;2022-12-18T09:48:32;96245.47;;;5.11;69.75
19761;BME280;10039;42.632;23.408;2022-12-18T09:53:55;96249.94;;;5.26;70.31
19761;BME280;10039;42.632;23.408;2022-12-18T09:56:22;96253.81;;;5.29;70.06
19761;BME280;10039;42.632;23.408;2022-12-18T09:59:00;96253.03;;;5.28;69.65
19761;BME280;10039;42.632;23.408;2022-12-18T10:01:27;96242.97;;;5.34;69.27
19761;BME280;10039;42.632;23.408;2022-12-18T10:03:53;96248.69;;;5.54;69.60
19761;BME280;10039;42.632;23.408;2022-12-18T10:06:42;96270.94;;;5.69;69.71
19761;BME280;10039;42.632;23.408;2022-12-18T10:15:36;96277.94;;;6.15;69.79
19761;BME280;10039;42.632;23.408;2022-12-18T10:17:51;96284.00;;;6.15;68.02
19761;BME280;10039;42.632;23.408;2022-12-18T10:20:48;96288.41;;;5.89;66.61
19761;BME280;10039;42.632;23.408;2022-12-18T10:23:40;96274.03;;;5.90;67.82
19761;BME280;10039;42.632;23.408;2022-12-18T10:26:10;96254.78;;;5.55;67.61
19761;BME280;10039;42.632;23.408;2022-12-18T10:28:39;96273.53;;;5.84;68.90
19761;BME280;10039;42.632;23.408;2022-12-18T10:31:15;96224.94;;;5.58;67.53
19761;BME280;10039;42.632;23.408;2022-12-18T10:33:42;96277.66;;;6.01;68.23
19761;BME280;10039;42.632;23.408;2022-12-18T10:36:07;96261.88;;;5.70;68.20
19761;BME280;10039;42.632;23.408;2022-12-18T10:38:33;96262.72;;;5.74;68.09
19761;BME280;10039;42.632;23.408;2022-12-18T10:41:04;96264.69;;;5.96;68.29
19761;BME280;10039;42.632;23.408;2022-12-18T10:43:32;96276.28;;;6.07;68.89
19761;BME280;10039;42.632;23.408;2022-12-18T10:48:31;96245.56;;;5.49;67.49
19761;BME280;10039;42.632;23.408;2022-12-18T10:50:58;96245.00;;;5.59;68.51
19761;BME280;10039;42.632;23.408;2022-12-18T10:53:27;96246.94;;;5.43;67.82
19761;BME280;10039;42.632;23.408;2022-12-18T10:55:55;96257.91;;;5.60;68.30
19761;BME280;10039;42.632;23.408;2022-12-18T10:58:26;96263.81;;;5.54;67.95
19761;BME280;10039;42.632;23.408;2022-12-18T11:03:33;96271.63;;;5.66;68.74
19761;BME280;10039;42.632;23.408;2022-12-18T11:06:18;96246.94;;;5.62;68.64
19761;BME280;10039;42.632;23.408;2022-12-18T11:08:57;96257.94;;;5.45;68.67
19761;BME280;10039;42.632;23.408;2022-12-18T11:11:24;96253.06;;;5.47;69.00
19761;BME280;10039;42.632;23.408;2022-12-18T11:14:03;96273.41;;;5.77;70.55
19761;BME280;10039;42.632;23.408;2022-12-18T11:16:33;96262.28;;;5.53;68.76
19761;BME280;10039;42.632;23.408;2022-12-18T11:21:46;96246.63;;;5.63;68.51
19761;BME280;10039;42.632;23.408;2022-12-18T11:24:28;96272.59;;;5.92;69.11
19761;BME280;10039;42.632;23.408;2022-12-18T11:26:56;96275.44;;;6.03;67.51
19761;BME280;10039;42.632;23.408;2022-12-18T11:29:27;96264.84;;;6.03;68.32
19761;BME280;10039;42.632;23.408;2022-12-18T11:32:30;96268.19;;;5.81;65.22
19761;BME280;10039;42.632;23.408;2022-12-18T11:35:30;96277.31;;;5.83;65.37
19761;BME280;10039;42.632;23.408;2022-12-18T11:38:23;96236.66;;;5.57;65.30
19761;BME280;10039;42.632;23.408;2022-12-18T11:41:13;96278.94;;;5.88;67.32
19761;BME280;10039;42.632;23.408;2022-12-18T11:43:58;96285.19;;;5.80;66.80
19761;BME280;10039;42.632;23.408;2022-12-18T11:46:37;96244.72;;;5.45;66.55
19761;BME280;10039;42.632;23.408;2022-12-18T11:49:15;96259.44;;;5.61;66.75
19761;BME280;10039;42.632;23.408;2022-12-18T11:52:00;96271.34;;;5.71;66.00
19761;BME280;10039;42.632;23.408;2022-12-18T11:54:26;96268.75;;;5.55;66.71
19761;BME280;10039;42.632;23.408;2022-12-18T11:57:01;96279.91;;;5.64;66.16
19761;BME280;10039;42.632;23.408;2022-12-18T12:05:40;96251.06;;;5.41;67.07
19761;BME280;10039;42.632;23.408;2022-12-18T12:11:28;96274.06;;;5.55;65.28
19761;BME280;10039;42.632;23.408;2022-12-18T12:20:02;96286.03;;;5.84;65.81
19761;BME280;10039;42.632;23.408;2022-12-18T12:23:12;96280.53;;;5.92;66.26
19761;BME280;10039;42.632;23.408;2022-12-18T12:25:46;96262.91;;;5.81;66.83
19761;BME280;10039;42.632;23.408;2022-12-18T12:38:57;96276.94;;;6.42;66.59
19761;BME280;10039;42.632;23.408;2022-12-18T12:41:30;96288.66;;;6.41;64.72
19761;BME280;10039;42.632;23.408;2022-12-18T12:44:47;96262.06;;;6.15;65.25
19761;BME280;10039;42.632;23.408;2022-12-18T12:47:23;96264.69;;;5.96;66.02
19761;BME280;10039;42.632;23.408;2022-12-18T12:49:51;96281.13;;;6.24;65.59
19761;BME280;10039;42.632;23.408;2022-12-18T12:52:38;96256.75;;;5.96;65.83
19761;BME280;10039;42.632;23.408;2022-12-18T12:55:14;96261.13;;;6.07;66.41
19761;BME280;10039;42.632;23.408;2022-12-18T12:57:46;96294.75;;;6.22;65.39
19761;BME280;10039;42.632;23.408;2022-12-18T13:00:17;96306.41;;;6.18;65.73
19761;BME280;10039;42.632;23.408;2022-12-18T13:03:12;96301.53;;;6.20;66.20
19761;BME280;10039;42.632;23.408;2022-12-18T13:08:57;96301.53;;;6.20;66.57
19761;BME280;10039;42.632;23.408;2022-12-18T13:14:31;96309.53;;;6.23;66.17
19761;BME280;10039;42.632;23.408;2022-12-18T13:19:49;96309.81;;;6.18;66.44
19761;BME280;10039;42.632;23.408;2022-12-18T13:22:48;96266.91;;;5.94;66.56
19761;BME280;10039;42.632;23.408;2022-12-18T13:25:35;96314.75;;;6.39;67.01
19761;BME280;10039;42.632;23.408;2022-12-18T13:34:24;96320.59;;;6.48;66.92
19761;BME280;10039;42.632;23.408;2022-12-18T13:36:50;96303.06;;;6.21;66.33
19761;BME280;10039;42.632;23.408;2022-12-18T13:41:51;96316.63;;;6.19;67.25
19761;BME280;10039;42.632;23.408;2022-12-18T13:46:47;96332.59;;;6.42;67.39
19761;BME280;10039;42.632;23.408;2022-12-18T13:51:49;96321.91;;;6.38;66.94
19761;BME280;10039;42.632;23.408;2022-12-18T13:56:54;96346.69;;;6.46;65.79
19761;BME280;10039;42.632;23.408;2022-12-18T13:59:25;96352.50;;;6.32;64.80
19761;BME280;10039;42.632;23.408;2022-12-18T14:01:56;96328.63;;;6.13;66.01
19761;BME280;10039;42.632;23.408;2022-12-18T14:04:30;96355.00;;;6.44;65.97
19761;BME280;10039;42.632;23.408;2022-12-18T14:07:05;96353.41;;;6.40;65.61
19761;BME280;10039;42.632;23.408;2022-12-18T14:09:37;96347.53;;;6.31;66.26
19761;BME280;10039;42.632;23.408;2022-12-18T14:12:05;96348.03;;;6.17;65.41
19761;BME280;10039;42.632;23.408;2022-12-18T14:14:51;96362.47;;;6.20;65.78
19761;BME280;10039;42.632;23.408;2022-12-18T14:17:18;96343.09;;;6.16;67.11
19761;BME280;10039;42.632;23.408;2022-12-18T14:19:49;96346.78;;;6.30;67.74
19761;BME280;10039;42.632;23.408;2022-12-18T14:22:24;96351.44;;;6.37;66.79
19761;BME280;10039;42.632;23.408;2022-12-18T14:27:37;96345.16;;;6.45;65.66
19761;BME280;10039;42.632;23.408;2022-12-18T14:33:12;96374.75;;;6.47;66.39
19761;BME280;10039;42.632;23.408;2022-12-18T14:35:51;96347.81;;;6.26;66.50
19761;BME280;10039;42.632;23.408;2022-12-18T14:38:24;96375.66;;;6.54;65.88
19761;BME280;10039;42.632;23.408;2022-12-18T14:40:55;96370.84;;;6.41;65.24
19761;BME280;10039;42.632;23.408;2022-12-18T14:43:21;96363.44;;;6.31;64.25
19761;BME280;10039;42.632;23.408;2022-12-18T14:45:47;96362.53;;;6.42;66.02
19761;BME280;10039;42.632;23.408;2022-12-18T14:51:21;96380.41;;;6.64;63.93
19761;BME280;10039;42.632;23.408;2022-12-18T14:53:53;96376.41;;;6.55;64.47
19761;BME280;10039;42.632;23.408;2022-12-18T14:56:21;96371.88;;;6.55;63.83
19761;BME280;10039;42.632;23.408;2022-12-18T14:58:52;96377.94;;;6.56;64.70